Luck, Wisconsin
Current Conditions -  °F | °C
As of 7:15 PM on Saturday 20 Dec 2014 (Local Time) from KRZN Reporting Station
Overcast Overcast  
Wind Chill: 26°   Ceiling: 1400
Heat Index: 32°   Visibility: 10mi
Dew Point: 27°   Wind: 6mph
Humidity: 83%   Direction: 180°S
Pressure: 30.11"   Gusts: NA
Location:  45.58°N, 92.48°W
Report Text: KRZN 210115Z AUTO 18005KT 10SM OVC014 00/M03 A3011 RMK AO2 T10021028
Loading
Personal Weather Stations






























Interactive Weather Map New forecast layout! Learn more

10-Day Weather Forecast

Advertisements
Track Severe Weather on mobile